Time;durP1;ratioP1;P1;durP2;ratioP2;P2;SDS_P1;SDS_P2;PMS_P1;PMS_P2;Temp;Humidity;BMP_temperature;BMP_pressure;BME280_temperature;BME280_humidity;BME280_pressure;Samples;Min_cycle;Max_cycle;Signal;HPM_P1;HPM_P2
2024/01/05 00:01:44;;;;;;;;;;;;;;;;;;5096970;28;19915;-70
2024/01/05 00:04:10;;;;;;;;;;;;;;;;;;5096825;28;19908;-72
2024/01/05 00:06:37;;;;;;;;;;;;;;;;;;5096228;28;19909;-71
2024/01/05 00:09:03;;;;;;;;;;;;;;;;;;5096696;28;19909;-70
2024/01/05 00:11:29;;;;;;;;;;;;;;;;;;5095377;28;19908;-71
2024/01/05 00:13:55;;;;;;;;;;;;;;;;;;5096162;28;19908;-71
2024/01/05 00:16:21;;;;;;;;;;;;;;;;;;5096586;28;19913;-71
2024/01/05 00:18:47;;;;;;;;;;;;;;;;;;5096138;28;19999;-71
2024/01/05 00:21:13;;;;;;;;;;;;;;;;;;5096117;28;19915;-70
2024/01/05 00:23:39;;;;;;;;;;;;;;;;;;5096598;28;19908;-70
2024/01/05 00:26:05;;;;;;;;;;;;;;;;;;5094664;28;19908;-71
2024/01/05 00:28:31;;;;;;;;;;;;;;;;;;5096272;28;19923;-71
2024/01/05 00:30:59;;;;;;;;;;;;;;;;;;5096343;28;19908;-71
2024/01/05 00:33:25;;;;;;;;;;;;;;;;;;5095809;28;20448;-72
2024/01/05 00:35:51;;;;;;;;;;;;;;;;;;5096548;28;19938;-71
2024/01/05 00:38:17;;;;;;;;;;;;;;;;;;5096075;28;20314;-71
2024/01/05 00:40:43;;;;;;;;;;;;;;;;;;5095672;28;19912;-70
2024/01/05 00:43:09;;;;;;;;;;;;;;;;;;5095969;28;19909;-71
2024/01/05 00:45:35;;;;;;;;;;;;;;;;;;5094679;28;19908;-70
2024/01/05 00:48:01;;;;;;;;;;;;;;;;;;5095351;28;19931;-71
2024/01/05 00:50:27;;;;;;;;;;;;;;;;;;5096044;28;19989;-70
2024/01/05 00:52:53;;;;;;;;;;;;;;;;;;5094680;28;19915;-71
2024/01/05 00:55:19;;;;;;;;;;;;;;;;;;5095482;28;19908;-71
2024/01/05 00:57:45;;;;;;;;;;;;;;;;;;5095853;28;19999;-70
2024/01/05 01:00:11;;;;;;;;;;;;;;;;;;5095790;28;19908;-71
2024/01/05 01:02:37;;;;;;;;;;;;;;;;;;5095286;28;19915;-71
2024/01/05 01:05:03;;;;;;;;;;;;;;;;;;5095617;28;20288;-71
2024/01/05 01:07:29;;;;;;;;;;;;;;;;;;5095490;28;19960;-71
2024/01/05 01:09:55;;;;;;;;;;;;;;;;;;5095083;28;19916;-71
2024/01/05 01:12:21;;;;;;;;;;;;;;;;;;5095431;28;19931;-71
2024/01/05 01:14:47;;;;;;;;;;;;;;;;;;5095421;28;19908;-71
2024/01/05 01:17:13;;;;;;;;;;;;;;;;;;5093611;28;19915;-71
2024/01/05 01:19:39;;;;;;;;;;;;;;;;;;5095377;28;19908;-71
2024/01/05 01:22:05;;;;;;;;;;;;;;;;;;5095012;28;19960;-71
2024/01/05 01:24:31;;;;;;;;;;;;;;;;;;5095164;28;19908;-71
2024/01/05 01:26:56;;;;;;;;;;;;;;;;;;5093765;28;19919;-71
2024/01/05 01:29:23;;;;;;;;;;;;;;;;;;5094659;28;19912;-71
2024/01/05 01:31:49;;;;;;;;;;;;;;;;;;5094227;28;20279;-71
2024/01/05 01:34:15;;;;;;;;;;;;;;;;;;5095036;28;20003;-71
2024/01/05 01:36:41;;;;;;;;;;;;;;;;;;5094542;28;20421;-71
2024/01/05 01:39:07;;;;;;;;;;;;;;;;;;5094919;28;19908;-71
2024/01/05 01:41:33;;;;;;;;;;;;;;;;;;5093525;28;19914;-71
2024/01/05 01:43:59;;;;;;;;;;;;;;;;;;5093326;28;19908;-71
2024/01/05 01:46:25;;;;;;;;;;;;;;;;;;5094616;28;19908;-70
2024/01/05 01:48:51;;;;;;;;;;;;;;;;;;5093456;28;19916;-71
2024/01/05 01:51:17;;;;;;;;;;;;;;;;;;5094303;28;20277;-71
2024/01/05 01:53:43;;;;;;;;;;;;;;;;;;5095207;28;19915;-71
2024/01/05 01:56:10;;;;;;;;;;;;;;;;;;5093340;28;20311;-71
2024/01/05 01:58:36;;;;;;;;;;;;;;;;;;5094150;28;19915;-70
2024/01/05 02:01:02;;;;;;;;;;;;;;;;;;5094483;28;19912;-71
2024/01/05 02:03:28;;;;;;;;;;;;;;;;;;5094675;28;19918;-71
2024/01/05 02:05:54;;;;;;;;;;;;;;;;;;5094084;28;20006;-71
2024/01/05 02:08:20;;;;;;;;;;;;;;;;;;5094261;28;19942;-71
2024/01/05 02:10:46;;;;;;;;;;;;;;;;;;5094453;28;19916;-71
2024/01/05 02:13:12;;;;;;;;;;;;;;;;;;5093953;28;19912;-71
2024/01/05 02:15:38;;;;;;;;;;;;;;;;;;5093023;28;19915;-71
2024/01/05 02:18:04;;;;;;;;;;;;;;;;;;5094298;28;20280;-71
2024/01/05 02:20:30;;;;;;;;;;;;;;;;;;5093897;28;19908;-70
2024/01/05 02:22:56;;;;;;;;;;;;;;;;;;5092972;28;19908;-71
2024/01/05 02:25:22;;;;;;;;;;;;;;;;;;5092451;28;20324;-70
2024/01/05 02:27:47;;;;;;;;;;;;;;;;;;5092734;28;19916;-71
2024/01/05 02:30:13;;;;;;;;;;;;;;;;;;5092766;28;19908;-71
2024/01/05 02:32:39;;;;;;;;;;;;;;;;;;5093626;28;20003;-70
2024/01/05 02:35:05;;;;;;;;;;;;;;;;;;5094047;28;19908;-71
2024/01/05 02:37:31;;;;;;;;;;;;;;;;;;5093952;28;19912;-71
2024/01/05 02:39:57;;;;;;;;;;;;;;;;;;5093545;28;19908;-71
2024/01/05 02:42:23;;;;;;;;;;;;;;;;;;5093808;28;20333;-71
2024/01/05 02:44:49;;;;;;;;;;;;;;;;;;5093897;28;19908;-71
2024/01/05 02:47:15;;;;;;;;;;;;;;;;;;5093161;28;19924;-71
2024/01/05 02:49:41;;;;;;;;;;;;;;;;;;5092630;28;19908;-71
2024/01/05 02:52:07;;;;;;;;;;;;;;;;;;5093797;28;19908;-71
2024/01/05 02:54:33;;;;;;;;;;;;;;;;;;5093427;28;19999;-71
2024/01/05 02:56:59;;;;;;;;;;;;;;;;;;5093993;28;19908;-71
2024/01/05 02:59:25;;;;;;;;;;;;;;;;;;5093727;28;19912;-71
2024/01/05 03:01:50;;;;;;;;;;;;;;;;;;5093394;28;20007;-71
2024/01/05 03:04:16;;;;;;;;;;;;;;;;;;5093729;28;19908;-71
2024/01/05 03:06:42;;;;;;;;;;;;;;;;;;5093811;28;19914;-71
2024/01/05 03:09:08;;;;;;;;;;;;;;;;;;5093341;28;20048;-71
2024/01/05 03:11:35;;;;;;;;;;;;;;;;;;5093869;28;19909;-71
2024/01/05 03:14:01;;;;;;;;;;;;;;;;;;5092367;28;19915;-71
2024/01/05 03:16:27;;;;;;;;;;;;;;;;;;5093162;28;19908;-71
2024/01/05 03:18:52;;;;;;;;;;;;;;;;;;5093561;28;19981;-71
2024/01/05 03:21:18;;;;;;;;;;;;;;;;;;5092233;28;19915;-71
2024/01/05 03:23:44;;;;;;;;;;;;;;;;;;5093119;28;19908;-70
2024/01/05 03:26:10;;;;;;;;;;;;;;;;;;5092256;28;20253;-71
2024/01/05 03:28:38;;;;;;;;;;;;;;;;;;5093426;28;19923;-70
2024/01/05 03:31:04;;;;;;;;;;;;;;;;;;5093989;28;19912;-71
2024/01/05 03:33:30;;;;;;;;;;;;;;;;;;5093757;28;19962;-71
2024/01/05 03:35:56;;;;;;;;;;;;;;;;;;5093123;28;19912;-71
2024/01/05 03:38:22;;;;;;;;;;;;;;;;;;5093362;28;19919;-71
2024/01/05 03:40:48;;;;;;;;;;;;;;;;;;5093411;28;19908;-71
2024/01/05 03:43:14;;;;;;;;;;;;;;;;;;5093087;28;19953;-71
2024/01/05 03:45:40;;;;;;;;;;;;;;;;;;5093427;28;19924;-71
2024/01/05 03:48:06;;;;;;;;;;;;;;;;;;5093078;28;19920;-71
2024/01/05 03:50:31;;;;;;;;;;;;;;;;;;5093096;28;19912;-71
2024/01/05 03:52:57;;;;;;;;;;;;;;;;;;5093315;28;19909;-71
2024/01/05 03:55:23;;;;;;;;;;;;;;;;;;5095178;28;19959;-71
2024/01/05 03:57:49;;;;;;;;;;;;;;;;;;5095211;28;19969;-71
2024/01/05 04:00:15;;;;;;;;;;;;;;;;;;5095537;28;19916;-71
2024/01/05 04:02:41;;;;;;;;;;;;;;;;;;5096766;28;19912;-71
2024/01/05 04:05:08;;;;;;;;;;;;;;;;;;5096625;28;20395;-71
2024/01/05 04:07:35;;;;;;;;;;;;;;;;;;5096614;28;19912;-71
2024/01/05 04:10:01;;;;;;;;;;;;;;;;;;5096633;28;19912;-71
2024/01/05 04:12:27;;;;;;;;;;;;;;;;;;5096196;28;19915;-72
2024/01/05 04:14:53;;;;;;;;;;;;;;;;;;5095289;28;19979;-71
2024/01/05 04:17:19;;;;;;;;;;;;;;;;;;5096568;28;19937;-71
2024/01/05 04:19:45;;;;;;;;;;;;;;;;;;5096045;28;19908;-71
2024/01/05 04:22:10;;;;;;;;;;;;;;;;;;5096431;28;19961;-71
2024/01/05 04:24:36;;;;;;;;;;;;;;;;;;5096545;28;19909;-71
2024/01/05 04:27:02;;;;;;;;;;;;;;;;;;5094524;28;19912;-71
2024/01/05 04:29:28;;;;;;;;;;;;;;;;;;5096557;28;19912;-71
2024/01/05 04:31:54;;;;;;;;;;;;;;;;;;5096267;28;19908;-71
2024/01/05 04:34:20;;;;;;;;;;;;;;;;;;5095858;28;19951;-71
2024/01/05 04:36:46;;;;;;;;;;;;;;;;;;5096198;28;19908;-71
2024/01/05 04:39:12;;;;;;;;;;;;;;;;;;5094393;28;19968;-71
2024/01/05 04:41:38;;;;;;;;;;;;;;;;;;5096464;28;19915;-71
2024/01/05 04:44:04;;;;;;;;;;;;;;;;;;5096029;28;20276;-71
2024/01/05 04:46:30;;;;;;;;;;;;;;;;;;5095428;28;20356;-71
2024/01/05 04:48:56;;;;;;;;;;;;;;;;;;5094618;28;20360;-71
2024/01/05 04:51:22;;;;;;;;;;;;;;;;;;5096264;28;20399;-71
2024/01/05 04:53:49;;;;;;;;;;;;;;;;;;5095313;28;19953;-71
2024/01/05 04:56:16;;;;;;;;;;;;;;;;;;5095829;28;19908;-71
2024/01/05 04:58:42;;;;;;;;;;;;;;;;;;5095710;28;19919;-71
2024/01/05 05:01:07;;;;;;;;;;;;;;;;;;5095387;28;19908;-71
2024/01/05 05:03:34;;;;;;;;;;;;;;;;;;5095693;28;19915;-71
2024/01/05 05:06:00;;;;;;;;;;;;;;;;;;5095582;28;19908;-71
2024/01/05 05:08:26;;;;;;;;;;;;;;;;;;5095139;28;19920;-71
2024/01/05 05:10:52;;;;;;;;;;;;;;;;;;5095433;28;19925;-71
2024/01/05 05:13:18;;;;;;;;;;;;;;;;;;5095453;28;19908;-71
2024/01/05 05:15:44;;;;;;;;;;;;;;;;;;5095180;28;20372;-71
2024/01/05 05:18:10;;;;;;;;;;;;;;;;;;5095404;28;19919;-71
2024/01/05 05:20:36;;;;;;;;;;;;;;;;;;5095298;28;19931;-71
2024/01/05 05:23:02;;;;;;;;;;;;;;;;;;5094793;28;19941;-71
2024/01/05 05:25:27;;;;;;;;;;;;;;;;;;5093926;28;19908;-71
2024/01/05 05:27:53;;;;;;;;;;;;;;;;;;5095045;28;19952;-71
2024/01/05 05:30:19;;;;;;;;;;;;;;;;;;5094747;28;19915;-71
2024/01/05 05:32:46;;;;;;;;;;;;;;;;;;5095378;28;19912;-71
2024/01/05 05:35:12;;;;;;;;;;;;;;;;;;5094967;28;20409;-71
2024/01/05 05:37:37;;;;;;;;;;;;;;;;;;5094550;28;19914;-71
2024/01/05 05:40:03;;;;;;;;;;;;;;;;;;5095013;28;19995;-71
2024/01/05 05:42:29;;;;;;;;;;;;;;;;;;5094497;28;19908;-71
2024/01/05 05:44:55;;;;;;;;;;;;;;;;;;5094924;28;19908;-71
2024/01/05 05:47:21;;;;;;;;;;;;;;;;;;5094725;28;19970;-71
2024/01/05 05:49:47;;;;;;;;;;;;;;;;;;5094399;28;19919;-70
2024/01/05 05:52:14;;;;;;;;;;;;;;;;;;5094769;28;19943;-71
2024/01/05 05:54:40;;;;;;;;;;;;;;;;;;5094687;28;19999;-71
2024/01/05 05:57:07;;;;;;;;;;;;;;;;;;5094921;28;20004;-71
2024/01/05 05:59:33;;;;;;;;;;;;;;;;;;5093281;28;19915;-72
2024/01/05 06:01:59;;;;;;;;;;;;;;;;;;5094493;28;19908;-71
2024/01/05 06:04:25;;;;;;;;;;;;;;;;;;5094074;28;19961;-71
2024/01/05 06:06:51;;;;;;;;;;;;;;;;;;5094366;28;19932;-71
2024/01/05 06:09:17;;;;;;;;;;;;;;;;;;5094446;28;19908;-70
2024/01/05 06:11:43;;;;;;;;;;;;;;;;;;5092695;28;19916;-70
2024/01/05 06:14:09;;;;;;;;;;;;;;;;;;5094298;28;19998;-70
2024/01/05 06:16:35;;;;;;;;;;;;;;;;;;5094325;28;19908;-70
2024/01/05 06:19:01;;;;;;;;;;;;;;;;;;5093376;28;19908;-70
2024/01/05 06:21:27;;;;;;;;;;;;;;;;;;5094190;28;19908;-71
2024/01/05 06:23:53;;;;;;;;;;;;;;;;;;5094195;28;19953;-70
2024/01/05 06:26:19;;;;;;;;;;;;;;;;;;5093730;28;19951;-71
2024/01/05 06:28:45;;;;;;;;;;;;;;;;;;5094027;28;20403;-71
2024/01/05 06:31:11;;;;;;;;;;;;;;;;;;5094093;28;20058;-71
2024/01/05 06:33:37;;;;;;;;;;;;;;;;;;5092411;28;19916;-71
2024/01/05 06:36:03;;;;;;;;;;;;;;;;;;5094166;28;19916;-71
2024/01/05 06:38:29;;;;;;;;;;;;;;;;;;5094339;28;20002;-71
2024/01/05 06:40:55;;;;;;;;;;;;;;;;;;5093535;28;19912;-71
2024/01/05 06:43:21;;;;;;;;;;;;;;;;;;5092708;28;19912;-71
2024/01/05 06:45:47;;;;;;;;;;;;;;;;;;5092239;28;19908;-71
2024/01/05 06:48:13;;;;;;;;;;;;;;;;;;5093695;28;19916;-72
2024/01/05 06:50:39;;;;;;;;;;;;;;;;;;5092637;28;19916;-69
2024/01/05 06:53:06;;;;;;;;;;;;;;;;;;5093420;28;19908;-70
2024/01/05 06:55:32;;;;;;;;;;;;;;;;;;5092565;28;19912;-70
2024/01/05 06:57:58;;;;;;;;;;;;;;;;;;5092567;28;20052;-70
2024/01/05 07:00:24;;;;;;;;;;;;;;;;;;5093745;28;19915;-70
2024/01/05 07:02:50;;;;;;;;;;;;;;;;;;5093837;28;19914;-70
2024/01/05 07:05:16;;;;;;;;;;;;;;;;;;5093804;28;19908;-71
2024/01/05 07:07:42;;;;;;;;;;;;;;;;;;5093284;28;19924;-71
2024/01/05 07:10:08;;;;;;;;;;;;;;;;;;5092406;28;19940;-71
2024/01/05 07:12:34;;;;;;;;;;;;;;;;;;5093915;28;19954;-70
2024/01/05 07:15:00;;;;;;;;;;;;;;;;;;5093393;28;20372;-70
2024/01/05 07:17:26;;;;;;;;;;;;;;;;;;5093610;28;19961;-70
2024/01/05 07:19:52;;;;;;;;;;;;;;;;;;5093607;28;19908;-71
2024/01/05 07:22:18;;;;;;;;;;;;;;;;;;5093240;28;19909;-71
2024/01/05 07:24:44;;;;;;;;;;;;;;;;;;5093583;28;19970;-71
2024/01/05 07:27:10;;;;;;;;;;;;;;;;;;5093685;28;19919;-71
2024/01/05 07:29:36;;;;;;;;;;;;;;;;;;5093947;28;19999;-71
2024/01/05 07:32:04;;;;;;;;;;;;;;;;;;5097461;28;19980;-71
2024/01/05 07:34:30;;;;;;;;;;;;;;;;;;5097374;28;19916;-72
2024/01/05 07:36:56;;;;;;;;;;;;;;;;;;5096872;28;19908;-72
2024/01/05 07:39:22;;;;;;;;;;;;;;;;;;5095983;28;19919;-71
2024/01/05 07:41:48;;;;;;;;;;;;;;;;;;5097301;28;19990;-71
2024/01/05 07:44:14;;;;;;;;;;;;;;;;;;5096829;28;19988;-71
2024/01/05 07:46:40;;;;;;;;;;;;;;;;;;5097251;28;19912;-71
2024/01/05 07:49:06;;;;;;;;;;;;;;;;;;5096511;28;20382;-72
2024/01/05 07:51:32;;;;;;;;;;;;;;;;;;5095789;28;19953;-72
2024/01/05 07:53:58;;;;;;;;;;;;;;;;;;5095759;28;19908;-71
2024/01/05 07:56:24;;;;;;;;;;;;;;;;;;5096627;28;19914;-72
2024/01/05 07:58:50;;;;;;;;;;;;;;;;;;5096915;28;19908;-72
2024/01/05 08:01:16;;;;;;;;;;;;;;;;;;5097007;28;20276;-72
2024/01/05 08:03:44;;;;;;;;;;;;;;;;;;5095319;28;20390;-72
2024/01/05 08:06:10;;;;;;;;;;;;;;;;;;5096863;28;19908;-71
2024/01/05 08:08:36;;;;;;;;;;;;;;;;;;5095392;28;19965;-71
2024/01/05 08:11:02;;;;;;;;;;;;;;;;;;5096410;28;19962;-71
2024/01/05 08:13:28;;;;;;;;;;;;;;;;;;5096812;28;19920;-71
2024/01/05 08:15:54;;;;;;;;;;;;;;;;;;5096514;28;20352;-71
2024/01/05 08:18:20;;;;;;;;;;;;;;;;;;5096237;28;19908;-71
2024/01/05 08:20:46;;;;;;;;;;;;;;;;;;5095535;28;20427;-72
2024/01/05 08:23:12;;;;;;;;;;;;;;;;;;5096625;28;20424;-71
2024/01/05 08:25:38;;;;;;;;;;;;;;;;;;5096080;28;20269;-72
2024/01/05 08:28:04;;;;;;;;;;;;;;;;;;5096270;28;19917;-72
2024/01/05 08:30:31;;;;;;;;;;;;;;;;;;5096331;28;19908;-71
2024/01/05 08:32:57;;;;;;;;;;;;;;;;;;5096005;28;19908;-72
2024/01/05 08:35:23;;;;;;;;;;;;;;;;;;5096229;28;19912;-72
2024/01/05 08:37:48;;;;;;;;;;;;;;;;;;5094944;28;19908;-72
2024/01/05 08:40:14;;;;;;;;;;;;;;;;;;5095401;28;19954;-72
2024/01/05 08:42:41;;;;;;;;;;;;;;;;;;5096184;28;19912;-72
2024/01/05 08:45:07;;;;;;;;;;;;;;;;;;5096111;28;19917;-72
2024/01/05 08:47:33;;;;;;;;;;;;;;;;;;5096026;28;19923;-71
2024/01/05 08:49:59;;;;;;;;;;;;;;;;;;5094425;28;19920;-71
2024/01/05 08:52:25;;;;;;;;;;;;;;;;;;5095631;28;20002;-71
2024/01/05 08:54:51;;;;;;;;;;;;;;;;;;5096102;28;19920;-72
2024/01/05 08:57:17;;;;;;;;;;;;;;;;;;5095829;28;19953;-72
2024/01/05 08:59:43;;;;;;;;;;;;;;;;;;5095322;28;19908;-71
2024/01/05 09:02:09;;;;;;;;;;;;;;;;;;5095680;28;20268;-72
2024/01/05 09:04:35;;;;;;;;;;;;;;;;;;5094368;28;19908;-71
2024/01/05 09:07:01;;;;;;;;;;;;;;;;;;5095103;28;19909;-72
2024/01/05 09:09:27;;;;;;;;;;;;;;;;;;5095476;28;19965;-71
2024/01/05 09:11:53;;;;;;;;;;;;;;;;;;5096009;28;19908;-71
2024/01/05 09:14:19;;;;;;;;;;;;;;;;;;5095111;28;19953;-72
2024/01/05 09:16:45;;;;;;;;;;;;;;;;;;5095676;28;20352;-72
2024/01/05 09:19:11;;;;;;;;;;;;;;;;;;5095385;28;19919;-72
2024/01/05 09:21:37;;;;;;;;;;;;;;;;;;5093617;28;20364;-72
2024/01/05 09:24:03;;;;;;;;;;;;;;;;;;5094022;28;19908;-72
2024/01/05 09:26:29;;;;;;;;;;;;;;;;;;5093971;28;19915;-72
2024/01/05 09:28:55;;;;;;;;;;;;;;;;;;5094793;28;19970;-72
2024/01/05 09:31:21;;;;;;;;;;;;;;;;;;5095144;28;19912;-72
2024/01/05 09:33:49;;;;;;;;;;;;;;;;;;5095440;28;19908;-72
2024/01/05 09:36:15;;;;;;;;;;;;;;;;;;5094751;28;19930;-72
2024/01/05 09:38:41;;;;;;;;;;;;;;;;;;5095081;28;20539;-72
2024/01/05 09:41:07;;;;;;;;;;;;;;;;;;5093573;28;20383;-70
2024/01/05 09:43:33;;;;;;;;;;;;;;;;;;5094593;28;19915;-71
2024/01/05 09:45:59;;;;;;;;;;;;;;;;;;5093480;28;20369;-73
2024/01/05 09:48:25;;;;;;;;;;;;;;;;;;5092050;28;20372;-71
2024/01/05 09:50:51;;;;;;;;;;;;;;;;;;5094792;28;19995;-72
2024/01/05 09:53:17;;;;;;;;;;;;;;;;;;5092763;28;20004;-72
2024/01/05 09:55:43;;;;;;;;;;;;;;;;;;5094590;28;19931;-72
2024/01/05 09:58:09;;;;;;;;;;;;;;;;;;5094527;28;20357;-72
2024/01/05 10:00:35;;;;;;;;;;;;;;;;;;5094596;28;20386;-71
2024/01/05 10:03:01;;;;;;;;;;;;;;;;;;5094092;28;19924;-72
2024/01/05 10:05:28;;;;;;;;;;;;;;;;;;5092352;28;19908;-72
2024/01/05 10:07:54;;;;;;;;;;;;;;;;;;5092127;28;19960;-72
2024/01/05 10:10:20;;;;;;;;;;;;;;;;;;5091849;28;19908;-71
2024/01/05 10:12:47;;;;;;;;;;;;;;;;;;5092342;28;19951;-72
2024/01/05 10:15:13;;;;;;;;;;;;;;;;;;5092289;28;20313;-72
2024/01/05 10:17:39;;;;;;;;;;;;;;;;;;5091805;28;19940;-72
2024/01/05 10:20:05;;;;;;;;;;;;;;;;;;5093924;28;20002;-72
2024/01/05 10:22:33;;;;;;;;;;;;;;;;;;5094597;28;20378;-71
2024/01/05 10:24:59;;;;;;;;;;;;;;;;;;5092585;28;19934;-71
2024/01/05 10:27:26;;;;;;;;;;;;;;;;;;5092764;28;19916;-71
2024/01/05 10:29:53;;;;;;;;;;;;;;;;;;5094071;28;19912;-71
2024/01/05 10:32:19;;;;;;;;;;;;;;;;;;5093660;28;19908;-70
2024/01/05 10:34:45;;;;;;;;;;;;;;;;;;5094397;28;20387;-71
2024/01/05 10:37:11;;;;;;;;;;;;;;;;;;5093981;28;20284;-70
2024/01/05 10:39:37;;;;;;;;;;;;;;;;;;5093638;28;19931;-71
2024/01/05 10:42:03;;;;;;;;;;;;;;;;;;5093969;28;20368;-71
2024/01/05 10:44:29;;;;;;;;;;;;;;;;;;5092652;28;20256;-71
2024/01/05 10:46:55;;;;;;;;;;;;;;;;;;5093368;28;20339;-72
2024/01/05 10:49:21;;;;;;;;;;;;;;;;;;5093507;28;19920;-72
2024/01/05 10:51:47;;;;;;;;;;;;;;;;;;5093413;28;20276;-72
2024/01/05 10:54:13;;;;;;;;;;;;;;;;;;5094392;28;20390;-71
2024/01/05 10:56:38;;;;;;;;;;;;;;;;;;5091767;28;20391;-72
2024/01/05 10:59:04;;;;;;;;;;;;;;;;;;5091293;28;19992;-71
2024/01/05 11:01:31;;;;;;;;;;;;;;;;;;5090242;28;19908;-72
2024/01/05 11:03:57;;;;;;;;;;;;;;;;;;5093464;28;19908;-72
2024/01/05 11:06:23;;;;;;;;;;;;;;;;;;5095649;28;20383;-72
2024/01/05 11:08:49;;;;;;;;;;;;;;;;;;5094289;28;20376;-72
2024/01/05 11:11:15;;;;;;;;;;;;;;;;;;5094312;28;20356;-71
2024/01/05 11:13:41;;;;;;;;;;;;;;;;;;5094859;28;19908;-71
2024/01/05 11:16:07;;;;;;;;;;;;;;;;;;5095283;28;19908;-72
2024/01/05 11:18:33;;;;;;;;;;;;;;;;;;5097098;28;19908;-71
2024/01/05 11:21:00;;;;;;;;;;;;;;;;;;5095611;28;19915;-71
2024/01/05 11:23:26;;;;;;;;;;;;;;;;;;5097669;28;19930;-71
2024/01/05 11:25:54;;;;;;;;;;;;;;;;;;5097942;28;20006;-71
2024/01/05 11:28:20;;;;;;;;;;;;;;;;;;5096963;28;19916;-71
2024/01/05 11:30:46;;;;;;;;;;;;;;;;;;5097327;28;19915;-71
2024/01/05 11:33:12;;;;;;;;;;;;;;;;;;5096101;28;19912;-70
2024/01/05 11:35:38;;;;;;;;;;;;;;;;;;5096964;28;19909;-70
2024/01/05 11:38:08;;;;;;;;;;;;;;;;;;5097434;28;19954;-70
2024/01/05 11:40:34;;;;;;;;;;;;;;;;;;5097266;28;19915;-70
2024/01/05 11:43:00;;;;;;;;;;;;;;;;;;5096801;28;19999;-70
2024/01/05 11:45:25;;;;;;;;;;;;;;;;;;5095968;28;19908;-70
2024/01/05 11:47:51;;;;;;;;;;;;;;;;;;5095744;28;19916;-70
2024/01/05 11:52:33;;;;;;;;;;;;;;;;;;5091622;27;19922;-71
2024/01/05 11:57:24;;;;;;;;;;;;;;;;;;5071115;28;19923;-70
2024/01/05 11:59:50;;;;;;;;;;;;;;;;;;5069761;28;19913;-71
2024/01/05 12:02:16;;;;;;;;;;;;;;;;;;5070715;28;19909;-71
2024/01/05 12:04:42;;;;;;;;;;;;;;;;;;5071351;28;19915;-69
2024/01/05 12:07:08;;;;;;;;;;;;;;;;;;5070937;28;19909;-69
2024/01/05 12:09:33;;;;;;;;;;;;;;;;;;5069238;28;19913;-69
2024/01/05 12:11:59;;;;;;;;;;;;;;;;;;5070806;28;19962;-69
2024/01/05 12:14:26;;;;;;;;;;;;;;;;;;5070801;28;19948;-69
2024/01/05 12:16:52;;;;;;;;;;;;;;;;;;5070128;28;20373;-69
2024/01/05 12:19:18;;;;;;;;;;;;;;;;;;5070928;28;19927;-69
2024/01/05 12:21:44;;;;;;;;;;;;;;;;;;5069264;28;19913;-69
2024/01/05 12:24:10;;;;;;;;;;;;;;;;;;5068887;28;20281;-69
2024/01/05 12:26:36;;;;;;;;;;;;;;;;;;5070566;28;19908;-69
2024/01/05 12:29:02;;;;;;;;;;;;;;;;;;5070395;28;19915;-70
2024/01/05 12:31:28;;;;;;;;;;;;;;;;;;5070065;28;19916;-70
2024/01/05 12:33:54;;;;;;;;;;;;;;;;;;5070341;28;19916;-70
2024/01/05 12:36:20;;;;;;;;;;;;;;;;;;5070222;28;19917;-70
2024/01/05 12:38:46;;;;;;;;;;;;;;;;;;5069992;28;19916;-70
2024/01/05 12:41:12;;;;;;;;;;;;;;;;;;5070525;28;19913;-70
2024/01/05 12:43:38;;;;;;;;;;;;;;;;;;5070238;28;19916;-70
2024/01/05 12:46:04;;;;;;;;;;;;;;;;;;5069768;28;20031;-70
2024/01/05 12:48:31;;;;;;;;;;;;;;;;;;5070074;28;20365;-70
2024/01/05 12:50:57;;;;;;;;;;;;;;;;;;5069974;28;19909;-70
2024/01/05 12:53:24;;;;;;;;;;;;;;;;;;5068337;28;19958;-70
2024/01/05 12:55:50;;;;;;;;;;;;;;;;;;5069593;28;19921;-69
2024/01/05 12:58:16;;;;;;;;;;;;;;;;;;5069718;28;19909;-70
2024/01/05 13:00:43;;;;;;;;;;;;;;;;;;5069442;28;20042;-70
2024/01/05 13:03:09;;;;;;;;;;;;;;;;;;5068398;28;19909;-70
2024/01/05 13:05:35;;;;;;;;;;;;;;;;;;5067871;28;19916;-71
2024/01/05 13:08:01;;;;;;;;;;;;;;;;;;5060394;28;19909;-70
2024/01/05 13:10:27;;;;;;;;;;;;;;;;;;5056393;28;20385;-70
2024/01/05 13:12:53;;;;;;;;;;;;;;;;;;5056252;28;19915;-70
2024/01/05 13:15:18;;;;;;;;;;;;;;;;;;5056193;28;20101;-70
2024/01/05 13:17:46;;;;;;;;;;;;;;;;;;5056264;28;19912;-69
2024/01/05 13:20:12;;;;;;;;;;;;;;;;;;5054567;28;19909;-69
2024/01/05 13:22:38;;;;;;;;;;;;;;;;;;5056560;28;19985;-69
2024/01/05 13:25:04;;;;;;;;;;;;;;;;;;5056131;28;19956;-69
2024/01/05 13:27:30;;;;;;;;;;;;;;;;;;5054340;28;19909;-71
2024/01/05 13:29:56;;;;;;;;;;;;;;;;;;5055971;28;19909;-70
2024/01/05 13:32:22;;;;;;;;;;;;;;;;;;5054779;28;19916;-70
2024/01/05 13:34:48;;;;;;;;;;;;;;;;;;5055584;28;20354;-70
2024/01/05 13:37:14;;;;;;;;;;;;;;;;;;5056104;28;20301;-70
2024/01/05 13:39:41;;;;;;;;;;;;;;;;;;5054482;28;19909;-70
2024/01/05 13:42:07;;;;;;;;;;;;;;;;;;5054031;28;19959;-69
2024/01/05 13:44:33;;;;;;;;;;;;;;;;;;5056013;28;20377;-69
2024/01/05 13:46:59;;;;;;;;;;;;;;;;;;5055698;28;19915;-69
2024/01/05 13:49:25;;;;;;;;;;;;;;;;;;5055227;28;19916;-70
2024/01/05 13:51:51;;;;;;;;;;;;;;;;;;5055709;28;19909;-70
2024/01/05 13:54:17;;;;;;;;;;;;;;;;;;5055689;28;19909;-70
2024/01/05 13:56:43;;;;;;;;;;;;;;;;;;5054927;28;19964;-70
2024/01/05 13:59:09;;;;;;;;;;;;;;;;;;5055453;28;19932;-70
2024/01/05 14:01:35;;;;;;;;;;;;;;;;;;5055394;28;19913;-69
2024/01/05 14:04:01;;;;;;;;;;;;;;;;;;5055114;28;20003;-69
2024/01/05 14:06:27;;;;;;;;;;;;;;;;;;5055324;28;19916;-70
2024/01/05 14:08:53;;;;;;;;;;;;;;;;;;5054236;28;19920;-71
2024/01/05 14:11:19;;;;;;;;;;;;;;;;;;5055483;28;19954;-69
2024/01/05 14:13:45;;;;;;;;;;;;;;;;;;5055214;28;19908;-69
2024/01/05 14:16:11;;;;;;;;;;;;;;;;;;5054745;28;20442;-69
2024/01/05 14:18:37;;;;;;;;;;;;;;;;;;5054394;28;20288;-69
2024/01/05 14:21:03;;;;;;;;;;;;;;;;;;5053500;28;19963;-69
2024/01/05 14:23:29;;;;;;;;;;;;;;;;;;5054843;28;19908;-70
2024/01/05 14:25:55;;;;;;;;;;;;;;;;;;5055128;28;19963;-71
2024/01/05 14:28:21;;;;;;;;;;;;;;;;;;5053874;28;20254;-68
2024/01/05 14:30:47;;;;;;;;;;;;;;;;;;5052661;28;19980;-71
2024/01/05 14:33:13;;;;;;;;;;;;;;;;;;5054889;28;20395;-70
2024/01/05 14:35:39;;;;;;;;;;;;;;;;;;5054519;28;20339;-70
2024/01/05 14:38:05;;;;;;;;;;;;;;;;;;5053997;28;19913;-71
2024/01/05 14:40:30;;;;;;;;;;;;;;;;;;5052964;28;20375;-69
2024/01/05 14:42:56;;;;;;;;;;;;;;;;;;5054483;28;19909;-70
2024/01/05 14:45:23;;;;;;;;;;;;;;;;;;5054267;28;19954;-69
2024/01/05 14:47:49;;;;;;;;;;;;;;;;;;5054486;28;19915;-70
2024/01/05 14:50:15;;;;;;;;;;;;;;;;;;5054710;28;20011;-69
2024/01/05 14:52:41;;;;;;;;;;;;;;;;;;5054205;28;19916;-69
2024/01/05 14:55:09;;;;;;;;;;;;;;;;;;5054276;28;20396;-69
2024/01/05 14:57:35;;;;;;;;;;;;;;;;;;5054532;28;19908;-69
2024/01/05 15:00:01;;;;;;;;;;;;;;;;;;5054128;28;19916;-69
2024/01/05 15:02:27;;;;;;;;;;;;;;;;;;5054383;28;19908;-70
2024/01/05 15:04:54;;;;;;;;;;;;;;;;;;5053024;28;19913;-70
2024/01/05 15:07:20;;;;;;;;;;;;;;;;;;5054171;28;19909;-69
2024/01/05 15:09:46;;;;;;;;;;;;;;;;;;5054184;28;19915;-70
2024/01/05 15:12:13;;;;;;;;;;;;;;;;;;5053780;28;19908;-70
2024/01/05 15:14:39;;;;;;;;;;;;;;;;;;5052818;28;19909;-70
2024/01/05 15:17:04;;;;;;;;;;;;;;;;;;5052729;28;20012;-70
2024/01/05 15:19:30;;;;;;;;;;;;;;;;;;5053894;28;19909;-71
2024/01/05 15:21:57;;;;;;;;;;;;;;;;;;5054060;28;19956;-69
2024/01/05 15:24:23;;;;;;;;;;;;;;;;;;5054022;28;19909;-70
2024/01/05 15:26:49;;;;;;;;;;;;;;;;;;5053639;28;19916;-68
2024/01/05 15:29:15;;;;;;;;;;;;;;;;;;5053778;28;19909;-69
2024/01/05 15:31:41;;;;;;;;;;;;;;;;;;5053516;28;20259;-69
2024/01/05 15:34:07;;;;;;;;;;;;;;;;;;5053372;28;20322;-69
2024/01/05 15:36:33;;;;;;;;;;;;;;;;;;5052441;28;19917;-69
2024/01/05 15:38:59;;;;;;;;;;;;;;;;;;5053874;28;20285;-69
2024/01/05 15:41:25;;;;;;;;;;;;;;;;;;5053564;28;19908;-69
2024/01/05 15:43:55;;;;;;;;;;;;;;;;;;5053916;28;20269;-70
2024/01/05 15:46:21;;;;;;;;;;;;;;;;;;5053759;28;19909;-70
2024/01/05 15:48:47;;;;;;;;;;;;;;;;;;5053232;28;19996;-70
2024/01/05 15:51:19;;;;;;;;;;;;;;;;;;5053710;28;20373;-70
2024/01/05 15:53:46;;;;;;;;;;;;;;;;;;5053727;28;19915;-71
2024/01/05 15:56:12;;;;;;;;;;;;;;;;;;5052880;28;19920;-68
2024/01/05 15:58:38;;;;;;;;;;;;;;;;;;5053847;28;19916;-69
2024/01/05 16:01:04;;;;;;;;;;;;;;;;;;5053584;28;19912;-69
2024/01/05 16:03:30;;;;;;;;;;;;;;;;;;5051784;28;19958;-69
2024/01/05 16:05:56;;;;;;;;;;;;;;;;;;5053446;28;20003;-71
2024/01/05 16:08:22;;;;;;;;;;;;;;;;;;5052992;28;20357;-69
2024/01/05 16:10:48;;;;;;;;;;;;;;;;;;5053674;28;20007;-69
2024/01/05 16:13:14;;;;;;;;;;;;;;;;;;5053373;28;19966;-69
2024/01/05 16:15:40;;;;;;;;;;;;;;;;;;5052998;28;20365;-69
2024/01/05 16:18:06;;;;;;;;;;;;;;;;;;5053524;28;19912;-70
2024/01/05 16:20:32;;;;;;;;;;;;;;;;;;5053358;28;19908;-69
2024/01/05 16:22:58;;;;;;;;;;;;;;;;;;5052848;28;19920;-69
2024/01/05 16:25:24;;;;;;;;;;;;;;;;;;5053568;28;19958;-69
2024/01/05 16:27:50;;;;;;;;;;;;;;;;;;5053210;28;19915;-69
2024/01/05 16:30:16;;;;;;;;;;;;;;;;;;5053003;28;20334;-70
2024/01/05 16:32:44;;;;;;;;;;;;;;;;;;5051978;28;19909;-69
2024/01/05 16:35:10;;;;;;;;;;;;;;;;;;5053136;28;19917;-69
2024/01/05 16:37:37;;;;;;;;;;;;;;;;;;5052780;28;19936;-69
2024/01/05 16:40:03;;;;;;;;;;;;;;;;;;5053109;28;19919;-69
2024/01/05 16:42:29;;;;;;;;;;;;;;;;;;5054126;28;19909;-70